createdAt,value
2022-12-13T00:01:31.638Z,-5.92
2022-12-13T00:04:02.011Z,-5.94
2022-12-13T00:06:30.633Z,-6.07
2022-12-13T00:09:00.351Z,-5.98
2022-12-13T00:11:28.487Z,-5.99
2022-12-13T00:13:56.772Z,-5.99
2022-12-13T00:16:26.153Z,-6.00
2022-12-13T00:18:56.733Z,-6.00
2022-12-13T00:21:27.236Z,-6.02
2022-12-13T00:23:55.258Z,-6.05
2022-12-13T00:26:26.428Z,-6.07
2022-12-13T00:28:55.014Z,-6.09
2022-12-13T00:34:13.560Z,-6.11
2022-12-13T00:36:41.351Z,-6.38
2022-12-13T00:39:12.670Z,-6.15
2022-12-13T00:41:41.979Z,-6.17
2022-12-13T00:44:11.546Z,-6.21
2022-12-13T00:46:39.924Z,-6.23
2022-12-13T00:49:07.667Z,-7.27
2022-12-13T00:51:35.666Z,-6.26
2022-12-13T00:54:03.501Z,-6.28
2022-12-13T00:56:33.220Z,-6.29
2022-12-13T00:59:02.493Z,-6.30
2022-12-13T01:01:34.214Z,-6.31
2022-12-13T01:04:04.171Z,-6.35
2022-12-13T01:06:36.666Z,-6.35
2022-12-13T01:09:06.322Z,-6.37
2022-12-13T01:11:34.162Z,-6.39
2022-12-13T01:14:03.440Z,-6.43
2022-12-13T01:16:31.302Z,-6.43
2022-12-13T01:18:59.152Z,-6.45
2022-12-13T01:21:26.926Z,-6.65
2022-12-13T01:24:01.804Z,-6.50
2022-12-13T01:26:29.638Z,-6.54
2022-12-13T01:28:57.401Z,-6.56
2022-12-13T01:31:26.971Z,-6.58
2022-12-13T01:33:54.719Z,-6.59
2022-12-13T01:36:27.963Z,-6.59
2022-12-13T01:38:58.515Z,-6.60
2022-12-13T01:41:29.197Z,-6.62
2022-12-13T01:44:03.010Z,-6.63
2022-12-13T01:46:33.855Z,-6.64
2022-12-13T01:49:06.309Z,-6.66
2022-12-13T01:51:53.059Z,-6.68
2022-12-13T01:54:33.678Z,-6.70
2022-12-13T01:57:05.307Z,-6.85
2022-12-13T01:59:34.478Z,-6.73
2022-12-13T02:02:04.706Z,-6.87
2022-12-13T02:04:43.763Z,-6.97
2022-12-13T02:07:14.121Z,-6.76
2022-12-13T02:09:56.393Z,-6.80
2022-12-13T02:12:29.539Z,-7.14
2022-12-13T02:15:00.516Z,-6.85
2022-12-13T02:17:44.499Z,-7.41
2022-12-13T02:20:47.057Z,-6.88
2022-12-13T02:23:47.906Z,-6.91
2022-12-13T02:26:36.463Z,-7.04
2022-12-13T02:29:31.077Z,-7.80
2022-12-13T02:32:06.346Z,-7.08
2022-12-13T02:34:39.673Z,-7.18
2022-12-13T02:37:17.900Z,-6.88
2022-12-13T02:39:52.203Z,-6.98
2022-12-13T02:42:25.089Z,-6.39
2022-12-13T02:44:58.178Z,-6.26
2022-12-13T02:47:28.795Z,-7.50
2022-12-13T02:49:59.760Z,-6.09
2022-12-13T02:52:30.088Z,-6.20
2022-12-13T02:54:58.929Z,-5.78
2022-12-13T02:57:31.538Z,-5.64
2022-12-13T03:00:02.909Z,-5.53
2022-12-13T03:02:43.634Z,-5.63
2022-12-13T03:05:39.353Z,-5.85
2022-12-13T03:08:20.451Z,-5.37
2022-12-13T03:10:57.699Z,-5.24
2022-12-13T03:13:38.639Z,-5.07
2022-12-13T03:16:12.769Z,-5.21
2022-12-13T03:18:42.912Z,-4.93
2022-12-13T03:21:10.994Z,-4.68
2022-12-13T03:23:39.418Z,-4.85
2022-12-13T03:26:11.275Z,-5.12
2022-12-13T03:28:39.522Z,-4.54
2022-12-13T03:31:08.559Z,-4.67
2022-12-13T03:33:36.486Z,-4.44
2022-12-13T03:36:07.969Z,-4.56
2022-12-13T03:38:36.531Z,-4.42
2022-12-13T03:41:08.157Z,-4.42
2022-12-13T03:43:35.985Z,-4.59
2022-12-13T03:46:03.877Z,-4.40
2022-12-13T03:48:31.752Z,-4.61
2022-12-13T03:50:59.529Z,-4.13
2022-12-13T03:53:34.078Z,-4.12
2022-12-13T03:56:04.069Z,-4.07
2022-12-13T03:58:36.134Z,-4.00
2022-12-13T04:01:10.326Z,-4.19
2022-12-13T04:03:38.976Z,-4.01
2022-12-13T04:06:07.936Z,-3.87
2022-12-13T04:08:38.049Z,-3.83
2022-12-13T04:11:26.734Z,-3.95
2022-12-13T04:13:54.661Z,-3.88
2022-12-13T04:16:23.749Z,-3.71
2022-12-13T04:18:51.783Z,-3.70
2022-12-13T04:21:19.585Z,-3.75
2022-12-13T04:23:48.800Z,-3.78
2022-12-13T04:26:16.555Z,-3.83
2022-12-13T04:28:47.006Z,-3.87
2022-12-13T04:31:18.696Z,-3.89
2022-12-13T04:33:46.461Z,-3.97
2022-12-13T04:36:32.292Z,-3.79
2022-12-13T04:39:02.653Z,-3.76
2022-12-13T04:41:35.976Z,-4.54
2022-12-13T04:44:05.021Z,-3.93
2022-12-13T04:46:32.833Z,-3.98
2022-12-13T04:49:00.576Z,-3.91
2022-12-13T04:51:28.805Z,-3.94
2022-12-13T04:53:56.553Z,-4.82
2022-12-13T04:56:45.606Z,-4.02
2022-12-13T04:59:14.147Z,-4.07
2022-12-13T05:01:42.032Z,-3.99
2022-12-13T05:04:09.857Z,-4.02
2022-12-13T05:06:37.587Z,-4.06
2022-12-13T05:09:05.312Z,-4.26
2022-12-13T05:11:39.336Z,-4.09
2022-12-13T05:14:15.325Z,-4.01
2022-12-13T05:16:51.869Z,-4.55
2022-12-13T05:19:19.866Z,-4.08
2022-12-13T05:21:47.632Z,-4.16
2022-12-13T05:24:15.353Z,-4.60
2022-12-13T05:26:43.555Z,-4.25
2022-12-13T05:29:11.399Z,-3.94
2022-12-13T05:31:41.048Z,-3.93
2022-12-13T05:34:08.871Z,-3.91
2022-12-13T05:36:36.626Z,-3.91
2022-12-13T05:39:04.805Z,-4.32
2022-12-13T05:41:36.448Z,-3.93
2022-12-13T05:44:05.273Z,-3.91
2022-12-13T05:46:38.321Z,-4.32
2022-12-13T05:49:10.523Z,-4.02
2022-12-13T05:51:38.258Z,-3.87
2022-12-13T05:54:06.149Z,-3.90
2022-12-13T05:56:33.891Z,-3.81
2022-12-13T05:59:01.656Z,-3.78
2022-12-13T06:01:29.715Z,-3.77
2022-12-13T06:03:57.558Z,-3.93
2022-12-13T06:06:27.433Z,-3.86
2022-12-13T06:08:55.482Z,-4.66
2022-12-13T06:11:32.249Z,-4.13
2022-12-13T06:14:00.683Z,-3.69
2022-12-13T06:16:29.231Z,-3.70
2022-12-13T06:19:03.849Z,-3.70
2022-12-13T06:21:41.457Z,-3.86
2022-12-13T06:24:14.738Z,-3.73
2022-12-13T06:26:42.666Z,-3.87
2022-12-13T06:29:13.151Z,-3.83
2022-12-13T06:34:54.039Z,-4.52
2022-12-13T06:37:26.096Z,-4.02
2022-12-13T06:39:53.840Z,-4.14
2022-12-13T06:42:22.332Z,-4.12
2022-12-13T06:44:51.770Z,-4.16
2022-12-13T06:47:31.532Z,-4.31
2022-12-13T06:50:05.568Z,-4.52
2022-12-13T06:52:35.370Z,-4.36
2022-12-13T06:55:03.218Z,-4.29
2022-12-13T06:57:33.344Z,-4.30
2022-12-13T07:00:03.431Z,-4.95
2022-12-13T07:02:32.595Z,-4.34
2022-12-13T07:05:00.514Z,-4.62
2022-12-13T07:07:28.292Z,-4.52
2022-12-13T07:09:57.445Z,-4.44
2022-12-13T07:12:25.258Z,-4.44
2022-12-13T07:14:54.930Z,-4.49
2022-12-13T07:17:32.424Z,-4.60
2022-12-13T07:20:03.578Z,-4.51
2022-12-13T07:22:34.779Z,-4.66
2022-12-13T07:25:05.307Z,-4.57
2022-12-13T07:27:33.588Z,-4.60
2022-12-13T07:30:01.487Z,-5.99
2022-12-13T07:32:29.475Z,-4.76
2022-12-13T07:34:57.283Z,-4.67
2022-12-13T07:37:29.360Z,-4.67
2022-12-13T07:40:03.777Z,-4.68
2022-12-13T07:42:34.102Z,-4.70
2022-12-13T07:45:03.029Z,-4.83
2022-12-13T07:47:31.522Z,-5.31
2022-12-13T07:49:59.699Z,-4.66
2022-12-13T07:52:29.540Z,-4.61
2022-12-13T07:54:57.250Z,-4.73
2022-12-13T07:57:25.039Z,-4.90
2022-12-13T07:59:54.143Z,-4.55
2022-12-13T08:02:22.086Z,-4.58
2022-12-13T08:04:54.721Z,-4.56
2022-12-13T08:07:23.096Z,-4.57
2022-12-13T08:09:52.934Z,-5.81
2022-12-13T08:12:22.269Z,-4.65
2022-12-13T08:14:53.138Z,-4.56
2022-12-13T08:17:23.241Z,-5.73
2022-12-13T08:19:51.135Z,-5.66
2022-12-13T08:22:23.845Z,-4.50
2022-12-13T08:24:52.459Z,-4.88
2022-12-13T08:27:20.308Z,-5.19
2022-12-13T08:29:48.179Z,-4.72
2022-12-13T08:32:15.973Z,-4.52
2022-12-13T08:34:45.432Z,-4.32
2022-12-13T08:37:13.838Z,-4.23
2022-12-13T08:39:41.895Z,-4.46
2022-12-13T08:42:17.183Z,-4.01
2022-12-13T08:44:47.846Z,-3.96
2022-12-13T08:47:24.676Z,-4.07
2022-12-13T08:50:02.336Z,-4.12
2022-12-13T08:52:41.673Z,-3.71
2022-12-13T08:55:11.100Z,-3.76
2022-12-13T08:57:40.564Z,-3.48
2022-12-13T09:00:11.516Z,-3.34
2022-12-13T09:02:39.472Z,-3.17
2022-12-13T09:05:10.030Z,-2.74
2022-12-13T09:07:39.410Z,-1.77
2022-12-13T09:10:26.553Z,-0.49
2022-12-13T09:13:01.376Z,0.07
2022-12-13T09:15:34.536Z,0.06
2022-12-13T09:18:05.131Z,-0.16
2022-12-13T09:20:41.312Z,0.11
2022-12-13T09:23:13.867Z,0.65
2022-12-13T09:25:56.179Z,1.31
2022-12-13T09:28:35.700Z,1.62
2022-12-13T09:31:08.060Z,1.89
2022-12-13T09:33:41.286Z,2.71
2022-12-13T09:36:13.541Z,3.56
2022-12-13T09:38:41.363Z,4.22
2022-12-13T09:41:19.592Z,4.54
2022-12-13T09:43:51.259Z,4.16
2022-12-13T09:46:27.374Z,3.99
2022-12-13T09:49:04.669Z,3.27
2022-12-13T09:51:46.016Z,3.05
2022-12-13T09:54:21.693Z,3.14
2022-12-13T09:56:50.937Z,4.15
2022-12-13T09:59:22.502Z,5.52
2022-12-13T10:01:50.284Z,6.09
2022-12-13T10:04:18.986Z,6.04
2022-12-13T10:06:53.110Z,6.05
2022-12-13T10:09:21.195Z,5.12
2022-12-13T10:11:51.153Z,5.02
2022-12-13T10:14:24.055Z,5.00
2022-12-13T10:16:53.812Z,4.62
2022-12-13T10:19:29.426Z,4.70
2022-12-13T10:22:02.849Z,5.13
2022-12-13T10:24:48.229Z,5.57
2022-12-13T10:27:19.511Z,6.14
2022-12-13T10:30:01.323Z,7.26
2022-12-13T10:32:29.435Z,7.96
2022-12-13T10:35:20.408Z,8.51
2022-12-13T10:37:49.572Z,8.35
2022-12-13T10:40:32.353Z,7.90
2022-12-13T10:43:09.713Z,7.71
2022-12-13T10:45:37.463Z,6.82
2022-12-13T10:48:05.969Z,8.36
2022-12-13T10:50:34.063Z,8.99
2022-12-13T10:53:03.617Z,9.34
2022-12-13T10:55:34.299Z,9.50
2022-12-13T10:58:07.221Z,8.76
2022-12-13T11:00:39.219Z,8.18
2022-12-13T11:03:08.280Z,7.66
2022-12-13T11:05:38.060Z,6.69
2022-12-13T11:08:23.397Z,5.69
2022-12-13T11:10:58.998Z,5.23
2022-12-13T11:13:36.803Z,4.89
2022-12-13T11:16:16.844Z,3.72
2022-12-13T11:18:44.771Z,4.66
2022-12-13T11:21:14.046Z,5.27
2022-12-13T11:23:45.933Z,4.98
2022-12-13T11:26:24.580Z,5.46
2022-12-13T11:29:10.085Z,3.93
2022-12-13T11:31:49.252Z,5.51
2022-12-13T11:34:25.591Z,5.86
2022-12-13T11:36:59.644Z,4.97
2022-12-13T11:39:33.740Z,4.43
2022-12-13T11:42:10.855Z,2.23
2022-12-13T11:44:48.287Z,3.92
2022-12-13T11:47:24.710Z,3.10
2022-12-13T11:49:53.567Z,4.31
2022-12-13T11:52:26.536Z,4.01
2022-12-13T11:55:00.601Z,4.36
2022-12-13T11:57:44.004Z,3.22
2022-12-13T12:00:34.357Z,3.57
2022-12-13T12:03:16.878Z,3.33
2022-12-13T12:05:49.570Z,2.64
2022-12-13T12:08:33.219Z,4.79
2022-12-13T12:11:11.878Z,6.16
2022-12-13T12:13:51.442Z,6.05
2022-12-13T12:16:29.651Z,5.52
2022-12-13T12:19:01.616Z,5.24
2022-12-13T12:22:18.435Z,4.42
2022-12-13T12:24:54.561Z,3.76
2022-12-13T12:27:32.612Z,3.63
2022-12-13T12:30:22.721Z,3.33
2022-12-13T12:32:59.919Z,3.04
2022-12-13T12:35:56.153Z,2.85
2022-12-13T12:38:44.364Z,2.73
2022-12-13T12:41:31.920Z,2.29
2022-12-13T12:44:12.332Z,1.88
2022-12-13T12:47:08.631Z,1.60
2022-12-13T12:50:01.057Z,1.07
2022-12-13T12:52:40.610Z,0.99
2022-12-13T12:55:18.312Z,-1.17
2022-12-13T12:57:55.280Z,-0.16
2022-12-13T13:00:25.975Z,0.22
2022-12-13T13:03:01.819Z,0.38
2022-12-13T13:05:36.570Z,0.30
2022-12-13T13:08:13.332Z,0.26
2022-12-13T13:10:49.692Z,0.25
2022-12-13T13:13:36.046Z,0.21
2022-12-13T13:16:33.921Z,-0.05
2022-12-13T13:19:02.465Z,-0.49
2022-12-13T13:21:44.720Z,0.09
2022-12-13T13:24:24.564Z,0.12
2022-12-13T13:26:55.677Z,0.16
2022-12-13T13:29:34.185Z,0.12
2022-12-13T13:32:28.320Z,-0.93
2022-12-13T13:35:53.570Z,0.10
2022-12-13T13:38:55.327Z,0.01
2022-12-13T13:41:55.026Z,-0.28
2022-12-13T13:44:54.954Z,-0.04
2022-12-13T13:47:44.720Z,-0.05
2022-12-13T13:50:57.293Z,-0.04
2022-12-13T13:54:00.151Z,0.01
2022-12-13T13:56:50.315Z,0.04
2022-12-13T13:59:56.621Z,-0.20
2022-12-13T14:02:59.217Z,-0.10
2022-12-13T14:06:04.357Z,0.13
2022-12-13T14:08:41.401Z,0.13
2022-12-13T14:11:25.688Z,0.12
2022-12-13T14:14:38.481Z,0.09
2022-12-13T14:17:53.428Z,0.02
2022-12-13T14:20:44.860Z,0.01
2022-12-13T14:23:22.881Z,-0.03
2022-12-13T14:26:04.946Z,-0.04
2022-12-13T14:28:42.608Z,-0.08
2022-12-13T14:31:21.904Z,-0.15
2022-12-13T14:33:52.088Z,-0.15
2022-12-13T14:36:28.937Z,-0.82
2022-12-13T14:39:04.073Z,-0.39
2022-12-13T14:41:32.281Z,-0.54
2022-12-13T14:44:15.898Z,-0.39
2022-12-13T14:46:51.906Z,-0.46
2022-12-13T14:49:20.555Z,-0.51
2022-12-13T14:52:00.239Z,-0.57
2022-12-13T14:54:33.314Z,-0.61
2022-12-13T14:57:03.042Z,-0.67
2022-12-13T14:59:31.230Z,-0.70
2022-12-13T15:02:02.436Z,-0.74
2022-12-13T15:04:32.408Z,-0.76
2022-12-13T15:07:06.342Z,-1.26
2022-12-13T15:09:38.289Z,-0.95
2022-12-13T15:12:23.807Z,-1.01
2022-12-13T15:14:59.493Z,-1.21
2022-12-13T15:17:31.105Z,-0.96
2022-12-13T15:20:24.768Z,-1.01
2022-12-13T15:23:01.262Z,-1.04
2022-12-13T15:25:34.096Z,-1.08
2022-12-13T15:28:02.113Z,-1.10
2022-12-13T15:30:32.662Z,-1.33
2022-12-13T15:33:04.616Z,-1.78
2022-12-13T15:35:33.162Z,-1.23
2022-12-13T15:38:03.607Z,-1.24
2022-12-13T15:40:31.428Z,-1.27
2022-12-13T15:42:59.502Z,-1.43
2022-12-13T15:45:37.077Z,-1.55
2022-12-13T15:48:06.352Z,-1.33
2022-12-13T15:50:41.049Z,-1.33
2022-12-13T15:53:24.127Z,-1.35
2022-12-13T15:55:52.265Z,-1.37
2022-12-13T15:58:27.632Z,-2.76
2022-12-13T16:00:55.514Z,-1.44
2022-12-13T16:03:25.685Z,-1.48
2022-12-13T16:05:55.771Z,-1.52
2022-12-13T16:08:31.622Z,-1.56
2022-12-13T16:11:00.262Z,-1.60
2022-12-13T16:13:30.675Z,-1.63
2022-12-13T16:16:09.642Z,-1.64
2022-12-13T16:18:45.727Z,-1.91
2022-12-13T16:21:14.130Z,-1.73
2022-12-13T16:23:48.622Z,-2.05
2022-12-13T16:26:23.179Z,-1.78
2022-12-13T16:28:51.383Z,-1.82
2022-12-13T16:31:22.614Z,-1.84
2022-12-13T16:33:50.632Z,-1.86
2022-12-13T16:36:18.820Z,-1.89
2022-12-13T16:38:48.150Z,-1.92
2022-12-13T16:41:16.241Z,-1.94
2022-12-13T16:43:55.964Z,-1.96
2022-12-13T16:47:11.451Z,-2.06
2022-12-13T16:49:21.103Z,-2.01
2022-12-13T16:51:49.389Z,-2.02
2022-12-13T16:54:19.982Z,-2.26
2022-12-13T16:56:48.231Z,-2.06
2022-12-13T16:59:17.553Z,-2.07
2022-12-13T17:01:46.388Z,-2.08
2022-12-13T17:04:20.194Z,-2.11
2022-12-13T17:06:49.752Z,-2.14
2022-12-13T17:09:19.101Z,-2.18
2022-12-13T17:11:47.026Z,-2.22
2022-12-13T17:14:15.275Z,-2.25
2022-12-13T17:16:43.087Z,-2.28
2022-12-13T17:19:15.380Z,-2.33
2022-12-13T17:21:43.151Z,-2.53
2022-12-13T17:24:11.054Z,-2.38
2022-12-13T17:26:40.163Z,-2.38
2022-12-13T17:29:10.844Z,-2.40
2022-12-13T17:31:41.061Z,-2.40
2022-12-13T17:34:09.008Z,-2.75
2022-12-13T17:36:36.798Z,-2.40
2022-12-13T17:39:05.036Z,-2.40
2022-12-13T17:41:33.189Z,-2.39
2022-12-13T17:44:02.247Z,-2.38
2022-12-13T17:46:30.068Z,-2.38
2022-12-13T17:48:57.786Z,-2.38
2022-12-13T17:51:25.488Z,-2.36
2022-12-13T17:53:53.811Z,-2.37
2022-12-13T17:56:21.976Z,-2.38
2022-12-13T17:58:49.702Z,-2.47
2022-12-13T18:01:21.274Z,-2.40
2022-12-13T18:03:50.143Z,-2.74
2022-12-13T18:06:18.378Z,-2.42
2022-12-13T18:08:47.009Z,-2.42
2022-12-13T18:11:32.998Z,-2.41
2022-12-13T18:14:02.821Z,-2.59
2022-12-13T18:16:37.396Z,-2.38
2022-12-13T18:19:06.861Z,-2.36
2022-12-13T18:21:36.505Z,-2.42
2022-12-13T18:24:05.195Z,-2.36
2022-12-13T18:26:32.986Z,-2.35
2022-12-13T18:29:00.766Z,-2.37
2022-12-13T18:31:28.899Z,-2.37
2022-12-13T18:33:58.053Z,-2.38
2022-12-13T18:36:27.134Z,-2.59
2022-12-13T18:38:54.951Z,-2.39
2022-12-13T18:41:24.174Z,-2.37
2022-12-13T18:43:59.212Z,-2.93
2022-12-13T18:46:29.310Z,-2.36
2022-12-13T18:48:58.837Z,-2.35
2022-12-13T18:51:26.693Z,-2.33
2022-12-13T18:53:55.986Z,-2.32
2022-12-13T18:56:24.677Z,-2.33
2022-12-13T18:58:53.316Z,-2.31
2022-12-13T19:01:22.660Z,-3.13
2022-12-13T19:03:50.601Z,-2.33
2022-12-13T19:06:21.741Z,-2.36
2022-12-13T19:08:50.346Z,-2.40
2022-12-13T19:11:18.768Z,-2.64
2022-12-13T19:13:46.854Z,-2.47
2022-12-13T19:16:20.891Z,-2.61
2022-12-13T19:18:53.332Z,-2.59
2022-12-13T19:21:27.349Z,-2.47
2022-12-13T19:24:01.348Z,-3.26
2022-12-13T19:26:30.515Z,-3.18
2022-12-13T19:29:04.275Z,-2.50
2022-12-13T19:32:03.331Z,-2.52
2022-12-13T19:34:31.432Z,-2.92
2022-12-13T19:37:06.072Z,-2.86
2022-12-13T19:39:34.443Z,-3.11
2022-12-13T19:42:02.221Z,-2.57
2022-12-13T19:44:30.038Z,-2.57
2022-12-13T19:46:58.530Z,-2.76
2022-12-13T19:49:26.468Z,-2.59
2022-12-13T19:51:55.136Z,-2.59
2022-12-13T19:54:25.815Z,-3.56
2022-12-13T19:56:54.209Z,-2.66
2022-12-13T19:59:22.209Z,-2.66
2022-12-13T20:01:50.038Z,-2.81
2022-12-13T20:04:17.822Z,-2.94
2022-12-13T20:06:45.764Z,-2.71
2022-12-13T20:09:14.077Z,-3.01
2022-12-13T20:11:43.167Z,-2.61
2022-12-13T20:14:11.031Z,-2.60
2022-12-13T20:16:38.880Z,-2.56
2022-12-13T20:19:06.708Z,-2.53
2022-12-13T20:21:34.657Z,-2.50
2022-12-13T20:24:02.969Z,-2.52
2022-12-13T20:26:31.521Z,-2.46
2022-12-13T20:29:01.141Z,-2.82
2022-12-13T20:31:30.985Z,-2.46
2022-12-13T20:34:00.575Z,-2.45
2022-12-13T20:36:29.900Z,-2.45
2022-12-13T20:38:59.550Z,-2.47
2022-12-13T20:41:29.682Z,-2.50
2022-12-13T20:43:59.124Z,-2.94
2022-12-13T20:46:29.665Z,-2.66
2022-12-13T20:48:58.551Z,-2.59
2022-12-13T20:51:28.478Z,-2.65
2022-12-13T20:53:57.489Z,-3.04
2022-12-13T20:56:35.170Z,-2.77
2022-12-13T20:59:03.516Z,-2.85
2022-12-13T21:01:34.972Z,-2.93
2022-12-13T21:04:05.520Z,-3.06
2022-12-13T21:06:35.950Z,-3.54
2022-12-13T21:09:04.993Z,-3.31
2022-12-13T21:11:35.030Z,-3.37
2022-12-13T21:14:09.885Z,-3.39
2022-12-13T21:16:43.648Z,-3.39
2022-12-13T21:19:14.140Z,-4.69
2022-12-13T21:21:41.980Z,-4.31
2022-12-13T21:24:10.427Z,-4.57
2022-12-13T21:26:38.164Z,-3.78
2022-12-13T21:29:07.598Z,-3.31
2022-12-13T21:31:36.751Z,-3.32
2022-12-13T21:34:06.836Z,-3.33
2022-12-13T21:36:36.882Z,-3.33
2022-12-13T21:39:06.551Z,-3.42
2022-12-13T21:41:34.485Z,-3.55
2022-12-13T21:44:02.293Z,-3.38
2022-12-13T21:47:10.146Z,-3.92
2022-12-13T21:49:23.174Z,-4.73
2022-12-13T21:51:51.062Z,-4.28
2022-12-13T21:54:18.984Z,-3.56
2022-12-13T21:57:04.414Z,-4.42
2022-12-13T21:59:32.388Z,-3.46
2022-12-13T22:02:14.896Z,-3.89
2022-12-13T22:04:45.819Z,-3.37
2022-12-13T22:07:15.800Z,-3.13
2022-12-13T22:09:45.393Z,-3.92
2022-12-13T22:12:20.097Z,-3.11
2022-12-13T22:14:48.589Z,-3.41
2022-12-13T22:17:16.689Z,-3.30
2022-12-13T22:19:48.747Z,-3.18
2022-12-13T22:22:17.970Z,-3.70
2022-12-13T22:24:52.728Z,-3.09
2022-12-13T22:27:25.312Z,-3.11
2022-12-13T22:29:54.196Z,-3.20
2022-12-13T22:32:22.453Z,-3.21
2022-12-13T22:34:51.701Z,-3.64
2022-12-13T22:37:19.838Z,-3.11
2022-12-13T22:39:47.626Z,-3.11
2022-12-13T22:42:15.520Z,-3.15
2022-12-13T22:44:43.460Z,-3.11
2022-12-13T22:47:11.192Z,-3.33
2022-12-13T22:49:38.898Z,-3.17
2022-12-13T22:52:09.549Z,-3.29
2022-12-13T22:54:37.396Z,-3.07
2022-12-13T22:57:05.278Z,-3.04
2022-12-13T22:59:32.998Z,-3.01
2022-12-13T23:02:03.015Z,-2.98
2022-12-13T23:04:33.672Z,-3.18
2022-12-13T23:07:01.830Z,-2.91
2022-12-13T23:09:30.878Z,-2.94
2022-12-13T23:12:16.111Z,-2.93
2022-12-13T23:14:43.961Z,-3.03
2022-12-13T23:17:11.697Z,-2.99
2022-12-13T23:19:49.066Z,-2.96
2022-12-13T23:22:19.512Z,-2.80
2022-12-13T23:24:48.600Z,-2.80
2022-12-13T23:27:16.902Z,-2.82
2022-12-13T23:29:45.130Z,-2.82
2022-12-13T23:32:13.044Z,-3.03
2022-12-13T23:34:40.715Z,-2.84
2022-12-13T23:37:08.461Z,-2.83
2022-12-13T23:39:36.324Z,-3.07
2022-12-13T23:42:05.581Z,-2.88
2022-12-13T23:44:33.545Z,-2.89
2022-12-13T23:47:01.367Z,-2.91
2022-12-13T23:49:29.409Z,-2.95
2022-12-13T23:51:57.117Z,-3.08
2022-12-13T23:54:24.841Z,-3.19
2022-12-13T23:56:52.568Z,-3.58
2022-12-13T23:59:21.626Z,-3.25
